N8033F 4I9-KOSU
Flight info
| Callsign | N8033F |
|---|---|
| Flight time | N/A |
| Altitude | 4000 |
| Route | GUNNE MELZZ DUBLIN1 |
| Aircraft | C172/L-VGD/C |
Departure
| Time | N/A |
|---|---|
| Airport | 4I9 |
Arrival
| Time | 2026-05-09 03:09 |
|---|---|
| Airport | The Ohio State University Airport - Don Scott Field (KOSU) |
| Time | Latitude | Longitude | Altitude | Speed | Heading |
|---|---|---|---|---|---|
| 2026-05-09 02:18 | 40.52579 | -82.85410 | 1077 ft | 0 kts | 271° |
| 2026-05-09 02:36 | 40.52578 | -82.85426 | 1077 ft | 4 kts | 263° |
| 2026-05-09 02:36 | 40.52539 | -82.85461 | 1077 ft | 12 kts | 116° |
| 2026-05-09 02:37 | 40.52535 | -82.85323 | 1078 ft | 17 kts | 90° |
| 2026-05-09 02:37 | 40.52533 | -82.85154 | 1080 ft | 19 kts | 91° |
| 2026-05-09 02:37 | 40.52532 | -82.84980 | 1083 ft | 19 kts | 91° |
| 2026-05-09 02:37 | 40.52529 | -82.84812 | 1087 ft | 17 kts | 90° |
| 2026-05-09 02:38 | 40.52527 | -82.84653 | 1090 ft | 17 kts | 90° |
| 2026-05-09 02:38 | 40.52524 | -82.84489 | 1090 ft | 18 kts | 92° |
| 2026-05-09 02:38 | 40.52520 | -82.84392 | 1090 ft | 2 kts | 132° |
| 2026-05-09 02:38 | 40.52516 | -82.84389 | 1090 ft | 0 kts | 148° |
| 2026-05-09 02:42 | 40.52497 | -82.84383 | 1090 ft | 9 kts | 175° |
| 2026-05-09 02:42 | 40.52445 | -82.84457 | 1090 ft | 20 kts | 271° |
| 2026-05-09 02:42 | 40.52452 | -82.84866 | 1086 ft | 68 kts | 271° |
| 2026-05-09 02:42 | 40.52491 | -82.85573 | 1232 ft | 79 kts | 273° |
| 2026-05-09 02:43 | 40.52567 | -82.86259 | 1473 ft | 75 kts | 270° |
| 2026-05-09 02:43 | 40.52465 | -82.86867 | 1758 ft | 65 kts | 232° |
| 2026-05-09 02:43 | 40.52001 | -82.87004 | 1922 ft | 79 kts | 170° |
| 2026-05-09 02:43 | 40.51503 | -82.86802 | 2148 ft | 74 kts | 166° |
| 2026-05-09 02:44 | 40.50963 | -82.86546 | 2192 ft | 88 kts | 165° |
| 2026-05-09 02:44 | 40.50376 | -82.86272 | 2301 ft | 93 kts | 169° |
| 2026-05-09 02:44 | 40.49759 | -82.85982 | 2357 ft | 94 kts | 168° |
| 2026-05-09 02:44 | 40.49135 | -82.85666 | 2467 ft | 96 kts | 166° |
| 2026-05-09 02:45 | 40.48505 | -82.85359 | 2583 ft | 97 kts | 167° |
| 2026-05-09 02:45 | 40.47878 | -82.85036 | 2654 ft | 96 kts | 171° |
| 2026-05-09 02:45 | 40.47244 | -82.84737 | 2773 ft | 96 kts | 171° |
| 2026-05-09 02:45 | 40.46605 | -82.84456 | 2865 ft | 93 kts | 181° |
| 2026-05-09 02:46 | 40.46011 | -82.84649 | 2943 ft | 85 kts | 216° |
| 2026-05-09 02:46 | 40.45525 | -82.85081 | 3067 ft | 83 kts | 224° |
| 2026-05-09 02:46 | 40.45159 | -82.85655 | 3137 ft | 83 kts | 237° |
| 2026-05-09 02:46 | 40.44825 | -82.86312 | 3130 ft | 87 kts | 239° |
| 2026-05-09 02:47 | 40.44499 | -82.86977 | 3110 ft | 86 kts | 239° |
| 2026-05-09 02:47 | 40.44172 | -82.87640 | 3062 ft | 87 kts | 239° |
| 2026-05-09 02:47 | 40.43843 | -82.88309 | 3022 ft | 88 kts | 239° |
| 2026-05-09 02:47 | 40.43510 | -82.88996 | 2995 ft | 87 kts | 239° |
| 2026-05-09 02:48 | 40.43188 | -82.89653 | 2994 ft | 84 kts | 239° |
| 2026-05-09 02:48 | 40.42874 | -82.90300 | 2992 ft | 83 kts | 239° |
| 2026-05-09 02:48 | 40.42566 | -82.90940 | 3004 ft | 82 kts | 239° |
| 2026-05-09 02:48 | 40.42255 | -82.91574 | 3005 ft | 83 kts | 239° |
| 2026-05-09 02:49 | 40.41938 | -82.92217 | 3009 ft | 83 kts | 239° |
| 2026-05-09 02:49 | 40.41623 | -82.92852 | 3001 ft | 83 kts | 239° |
| 2026-05-09 02:49 | 40.41312 | -82.93492 | 3007 ft | 84 kts | 240° |
| 2026-05-09 02:49 | 40.40998 | -82.94137 | 3002 ft | 83 kts | 238° |
| 2026-05-09 02:50 | 40.40699 | -82.94779 | 3012 ft | 83 kts | 240° |
| 2026-05-09 02:50 | 40.40393 | -82.95427 | 2994 ft | 83 kts | 238° |
| 2026-05-09 02:50 | 40.40094 | -82.96070 | 3009 ft | 82 kts | 240° |
| 2026-05-09 02:50 | 40.39799 | -82.96709 | 2964 ft | 85 kts | 240° |
| 2026-05-09 02:51 | 40.39479 | -82.97414 | 2842 ft | 93 kts | 242° |
| 2026-05-09 02:51 | 40.39130 | -82.98157 | 2741 ft | 97 kts | 240° |
| 2026-05-09 02:51 | 40.38779 | -82.98924 | 2614 ft | 98 kts | 241° |
| 2026-05-09 02:51 | 40.38417 | -82.99683 | 2529 ft | 97 kts | 234° |
| 2026-05-09 02:52 | 40.37832 | -83.00102 | 2503 ft | 97 kts | 196° |
| 2026-05-09 02:52 | 40.37178 | -83.00188 | 2501 ft | 93 kts | 189° |
| 2026-05-09 02:52 | 40.36541 | -83.00290 | 2514 ft | 91 kts | 195° |
| 2026-05-09 02:52 | 40.35912 | -83.00417 | 2512 ft | 91 kts | 195° |
| 2026-05-09 02:53 | 40.35277 | -83.00541 | 2513 ft | 91 kts | 194° |
| 2026-05-09 02:53 | 40.34647 | -83.00663 | 2520 ft | 92 kts | 194° |
| 2026-05-09 02:53 | 40.34008 | -83.00791 | 2515 ft | 93 kts | 195° |
| 2026-05-09 02:53 | 40.33368 | -83.00923 | 2517 ft | 92 kts | 195° |
| 2026-05-09 02:54 | 40.32735 | -83.01060 | 2516 ft | 92 kts | 196° |
| 2026-05-09 02:54 | 40.32099 | -83.01202 | 2517 ft | 92 kts | 196° |
| 2026-05-09 02:54 | 40.31467 | -83.01336 | 2517 ft | 92 kts | 195° |
| 2026-05-09 02:54 | 40.30830 | -83.01469 | 2526 ft | 91 kts | 196° |
| 2026-05-09 02:55 | 40.30197 | -83.01595 | 2506 ft | 93 kts | 195° |
| 2026-05-09 02:55 | 40.29543 | -83.01718 | 2503 ft | 93 kts | 194° |
| 2026-05-09 02:55 | 40.28907 | -83.01844 | 2505 ft | 91 kts | 195° |
| 2026-05-09 02:55 | 40.28276 | -83.01973 | 2516 ft | 91 kts | 197° |
| 2026-05-09 02:56 | 40.27640 | -83.02088 | 2519 ft | 92 kts | 196° |
| 2026-05-09 02:56 | 40.27008 | -83.02208 | 2508 ft | 93 kts | 192° |
| 2026-05-09 02:56 | 40.26355 | -83.02187 | 2501 ft | 98 kts | 165° |
| 2026-05-09 02:56 | 40.25783 | -83.01687 | 2491 ft | 100 kts | 148° |
| 2026-05-09 02:57 | 40.25258 | -83.01089 | 2488 ft | 100 kts | 144° |
| 2026-05-09 02:57 | 40.24728 | -83.00491 | 2524 ft | 103 kts | 148° |
| 2026-05-09 02:57 | 40.24157 | -82.99867 | 2505 ft | 108 kts | 146° |
| 2026-05-09 02:57 | 40.23582 | -82.99243 | 2500 ft | 108 kts | 146° |
| 2026-05-09 02:58 | 40.23003 | -82.98619 | 2501 ft | 108 kts | 147° |
| 2026-05-09 02:58 | 40.22424 | -82.97993 | 2508 ft | 108 kts | 146° |
| 2026-05-09 02:58 | 40.21830 | -82.97353 | 2507 ft | 109 kts | 146° |
| 2026-05-09 02:58 | 40.21240 | -82.96721 | 2498 ft | 110 kts | 145° |
| 2026-05-09 02:59 | 40.20650 | -82.96098 | 2499 ft | 109 kts | 145° |
| 2026-05-09 02:59 | 40.20063 | -82.95478 | 2503 ft | 109 kts | 147° |
| 2026-05-09 02:59 | 40.19466 | -82.94837 | 2507 ft | 110 kts | 147° |
| 2026-05-09 02:59 | 40.18876 | -82.94195 | 2505 ft | 110 kts | 147° |
| 2026-05-09 03:00 | 40.18292 | -82.93550 | 2512 ft | 111 kts | 146° |
| 2026-05-09 03:00 | 40.17697 | -82.92905 | 2501 ft | 111 kts | 148° |
| 2026-05-09 03:00 | 40.17091 | -82.92250 | 2506 ft | 111 kts | 147° |
| 2026-05-09 03:00 | 40.16494 | -82.91616 | 2497 ft | 111 kts | 147° |
| 2026-05-09 03:01 | 40.15899 | -82.90980 | 2499 ft | 110 kts | 148° |
| 2026-05-09 03:01 | 40.15310 | -82.90350 | 2501 ft | 110 kts | 147° |
| 2026-05-09 03:01 | 40.14708 | -82.89705 | 2512 ft | 111 kts | 147° |
| 2026-05-09 03:01 | 40.14114 | -82.89071 | 2505 ft | 111 kts | 150° |
| 2026-05-09 03:02 | 40.13422 | -82.88684 | 2503 ft | 106 kts | 169° |
| 2026-05-09 03:02 | 40.12720 | -82.88397 | 2512 ft | 105 kts | 169° |
| 2026-05-09 03:02 | 40.12012 | -82.88114 | 2510 ft | 104 kts | 170° |
| 2026-05-09 03:02 | 40.11320 | -82.87837 | 2517 ft | 104 kts | 169° |
| 2026-05-09 03:03 | 40.10622 | -82.87700 | 2526 ft | 99 kts | 197° |
| 2026-05-09 03:03 | 40.10090 | -82.88188 | 2522 ft | 93 kts | 239° |
| 2026-05-09 03:03 | 40.09824 | -82.88944 | 2523 ft | 93 kts | 249° |
| 2026-05-09 03:03 | 40.09600 | -82.89735 | 2521 ft | 92 kts | 250° |
| 2026-05-09 03:04 | 40.09381 | -82.90533 | 2525 ft | 92 kts | 251° |
| 2026-05-09 03:04 | 40.09170 | -82.91318 | 2525 ft | 92 kts | 251° |
| 2026-05-09 03:04 | 40.08956 | -82.92110 | 2521 ft | 92 kts | 250° |
| 2026-05-09 03:04 | 40.08765 | -82.92906 | 2518 ft | 91 kts | 256° |
| 2026-05-09 03:05 | 40.08637 | -82.93692 | 2564 ft | 87 kts | 259° |
| 2026-05-09 03:05 | 40.08536 | -82.94477 | 2595 ft | 87 kts | 260° |
| 2026-05-09 03:05 | 40.08477 | -82.95266 | 2624 ft | 87 kts | 265° |
| 2026-05-09 03:05 | 40.08469 | -82.96065 | 2600 ft | 89 kts | 267° |
| 2026-05-09 03:06 | 40.08458 | -82.96893 | 2506 ft | 94 kts | 265° |
| 2026-05-09 03:06 | 40.08388 | -82.97767 | 2363 ft | 99 kts | 260° |
| 2026-05-09 03:06 | 40.08267 | -82.98664 | 2219 ft | 102 kts | 260° |
| 2026-05-09 03:06 | 40.08167 | -82.99521 | 2095 ft | 86 kts | 263° |
| 2026-05-09 03:07 | 40.08108 | -83.00253 | 1963 ft | 78 kts | 264° |
| 2026-05-09 03:07 | 40.08053 | -83.00899 | 1869 ft | 68 kts | 266° |
| 2026-05-09 03:07 | 40.08003 | -83.01505 | 1735 ft | 68 kts | 265° |
| 2026-05-09 03:07 | 40.07960 | -83.02128 | 1592 ft | 70 kts | 269° |
| 2026-05-09 03:08 | 40.07924 | -83.02777 | 1453 ft | 71 kts | 269° |
| 2026-05-09 03:08 | 40.07903 | -83.03408 | 1367 ft | 68 kts | 270° |
| 2026-05-09 03:08 | 40.07881 | -83.04021 | 1275 ft | 67 kts | 269° |
| 2026-05-09 03:08 | 40.07853 | -83.04634 | 1175 ft | 69 kts | 269° |
| 2026-05-09 03:09 | 40.07832 | -83.05270 | 1083 ft | 69 kts | 270° |
| 2026-05-09 03:09 | 40.07808 | -83.05890 | 1007 ft | 68 kts | 269° |
| 2026-05-09 03:09 | 40.07780 | -83.06500 | 900 ft | 66 kts | 269° |
| 2026-05-09 03:09 | 40.07762 | -83.07018 | 900 ft | 47 kts | 269° |
| 2026-05-09 03:10 | 40.07734 | -83.07328 | 903 ft | 20 kts | 225° |
| 2026-05-09 03:10 | 40.07661 | -83.07340 | 903 ft | 0 kts | 173° |
| 2026-05-09 03:10 | 40.07652 | -83.07340 | 903 ft | 5 kts | 177° |
| 2026-05-09 03:11 | 40.07603 | -83.07378 | 903 ft | 13 kts | 261° |
| 2026-05-09 03:11 | 40.07601 | -83.07528 | 903 ft | 19 kts | 275° |
| 2026-05-09 03:11 | 40.07533 | -83.07638 | 903 ft | 17 kts | 187° |
| 2026-05-09 03:11 | 40.07502 | -83.07656 | 903 ft | 0 kts | 274° |